sensor_id;sensor_type;location;lat;lon;timestamp;P1;durP1;ratioP1;P2;durP2;ratioP2
19609;SDS011;9952;47.122;-1.638;2022-12-18T00:02:46;43.33;;;18.30;;
19609;SDS011;9952;47.122;-1.638;2022-12-18T00:07:26;33.87;;;17.67;;
19609;SDS011;9952;47.122;-1.638;2022-12-18T00:12:07;34.33;;;16.97;;
19609;SDS011;9952;47.122;-1.638;2022-12-18T00:16:48;36.47;;;18.03;;
19609;SDS011;9952;47.122;-1.638;2022-12-18T00:21:29;37.83;;;18.53;;
19609;SDS011;9952;47.122;-1.638;2022-12-18T00:26:12;40.63;;;20.90;;
19609;SDS011;9952;47.122;-1.638;2022-12-18T00:35:45;35.43;;;17.73;;
19609;SDS011;9952;47.122;-1.638;2022-12-18T00:40:26;35.13;;;16.10;;
19609;SDS011;9952;47.122;-1.638;2022-12-18T00:45:07;37.00;;;15.77;;
19609;SDS011;9952;47.122;-1.638;2022-12-18T00:49:48;32.47;;;15.10;;
19609;SDS011;9952;47.122;-1.638;2022-12-18T00:54:29;33.33;;;16.20;;
19609;SDS011;9952;47.122;-1.638;2022-12-18T00:59:10;33.93;;;16.17;;
19609;SDS011;9952;47.122;-1.638;2022-12-18T01:03:50;31.37;;;15.37;;
19609;SDS011;9952;47.122;-1.638;2022-12-18T01:08:31;29.97;;;15.90;;
19609;SDS011;9952;47.122;-1.638;2022-12-18T01:13:12;37.17;;;16.77;;
19609;SDS011;9952;47.122;-1.638;2022-12-18T01:17:53;35.30;;;16.90;;
19609;SDS011;9952;47.122;-1.638;2022-12-18T01:22:34;38.57;;;16.83;;
19609;SDS011;9952;47.122;-1.638;2022-12-18T01:27:15;32.73;;;16.43;;
19609;SDS011;9952;47.122;-1.638;2022-12-18T01:31:56;31.77;;;16.07;;
19609;SDS011;9952;47.122;-1.638;2022-12-18T01:36:37;33.67;;;15.83;;
19609;SDS011;9952;47.122;-1.638;2022-12-18T01:41:22;37.63;;;16.80;;
19609;SDS011;9952;47.122;-1.638;2022-12-18T01:46:06;42.07;;;18.10;;
19609;SDS011;9952;47.122;-1.638;2022-12-18T01:50:46;35.23;;;16.03;;
19609;SDS011;9952;47.122;-1.638;2022-12-18T01:55:31;28.93;;;13.70;;
19609;SDS011;9952;47.122;-1.638;2022-12-18T02:00:23;28.97;;;13.87;;
19609;SDS011;9952;47.122;-1.638;2022-12-18T02:05:05;33.07;;;15.13;;
19609;SDS011;9952;47.122;-1.638;2022-12-18T02:10:06;31.00;;;14.67;;
19609;SDS011;9952;47.122;-1.638;2022-12-18T02:15:05;42.47;;;20.00;;
19609;SDS011;9952;47.122;-1.638;2022-12-18T02:30:00;30.30;;;15.30;;
19609;SDS011;9952;47.122;-1.638;2022-12-18T02:34:44;39.73;;;17.60;;
19609;SDS011;9952;47.122;-1.638;2022-12-18T02:39:28;33.97;;;16.03;;
19609;SDS011;9952;47.122;-1.638;2022-12-18T02:44:11;30.87;;;13.90;;
19609;SDS011;9952;47.122;-1.638;2022-12-18T02:48:54;28.47;;;14.17;;
19609;SDS011;9952;47.122;-1.638;2022-12-18T02:53:45;30.43;;;16.17;;
19609;SDS011;9952;47.122;-1.638;2022-12-18T03:03:34;32.10;;;15.40;;
19609;SDS011;9952;47.122;-1.638;2022-12-18T03:08:30;30.83;;;15.40;;
19609;SDS011;9952;47.122;-1.638;2022-12-18T03:13:20;30.23;;;15.03;;
19609;SDS011;9952;47.122;-1.638;2022-12-18T03:18:16;41.53;;;17.40;;
19609;SDS011;9952;47.122;-1.638;2022-12-18T03:23:09;45.43;;;22.67;;
19609;SDS011;9952;47.122;-1.638;2022-12-18T03:27:54;34.70;;;16.17;;
19609;SDS011;9952;47.122;-1.638;2022-12-18T03:32:41;31.33;;;15.23;;
19609;SDS011;9952;47.122;-1.638;2022-12-18T03:37:26;35.77;;;21.53;;
19609;SDS011;9952;47.122;-1.638;2022-12-18T03:42:12;26.27;;;13.90;;
19609;SDS011;9952;47.122;-1.638;2022-12-18T03:47:09;27.27;;;12.97;;
19609;SDS011;9952;47.122;-1.638;2022-12-18T03:51:54;26.37;;;13.30;;
19609;SDS011;9952;47.122;-1.638;2022-12-18T03:56:42;26.73;;;13.53;;
19609;SDS011;9952;47.122;-1.638;2022-12-18T04:01:34;22.27;;;12.57;;
19609;SDS011;9952;47.122;-1.638;2022-12-18T04:06:19;29.43;;;15.00;;
19609;SDS011;9952;47.122;-1.638;2022-12-18T04:11:01;30.13;;;14.63;;
19609;SDS011;9952;47.122;-1.638;2022-12-18T04:15:43;29.50;;;15.33;;
19609;SDS011;9952;47.122;-1.638;2022-12-18T04:20:23;28.47;;;15.33;;
19609;SDS011;9952;47.122;-1.638;2022-12-18T04:25:04;31.63;;;16.80;;
19609;SDS011;9952;47.122;-1.638;2022-12-18T04:29:45;26.63;;;14.87;;
19609;SDS011;9952;47.122;-1.638;2022-12-18T04:34:26;31.30;;;17.60;;
19609;SDS011;9952;47.122;-1.638;2022-12-18T04:39:06;28.23;;;16.23;;
19609;SDS011;9952;47.122;-1.638;2022-12-18T04:43:47;30.37;;;15.10;;
19609;SDS011;9952;47.122;-1.638;2022-12-18T04:48:28;23.13;;;12.30;;
19609;SDS011;9952;47.122;-1.638;2022-12-18T04:53:09;25.73;;;12.97;;
19609;SDS011;9952;47.122;-1.638;2022-12-18T04:57:50;21.57;;;12.47;;
19609;SDS011;9952;47.122;-1.638;2022-12-18T05:02:30;25.83;;;12.87;;
19609;SDS011;9952;47.122;-1.638;2022-12-18T05:07:11;25.93;;;15.30;;
19609;SDS011;9952;47.122;-1.638;2022-12-18T05:11:52;25.33;;;13.67;;
19609;SDS011;9952;47.122;-1.638;2022-12-18T05:16:33;21.80;;;11.37;;
19609;SDS011;9952;47.122;-1.638;2022-12-18T05:21:14;25.27;;;13.27;;
19609;SDS011;9952;47.122;-1.638;2022-12-18T05:30:37;24.77;;;12.07;;
19609;SDS011;9952;47.122;-1.638;2022-12-18T05:35:18;24.13;;;13.57;;
19609;SDS011;9952;47.122;-1.638;2022-12-18T05:39:58;28.73;;;12.77;;
19609;SDS011;9952;47.122;-1.638;2022-12-18T05:44:39;22.80;;;11.93;;
19609;SDS011;9952;47.122;-1.638;2022-12-18T05:49:20;24.30;;;11.90;;
19609;SDS011;9952;47.122;-1.638;2022-12-18T05:54:01;24.70;;;11.50;;
19609;SDS011;9952;47.122;-1.638;2022-12-18T05:58:42;25.23;;;12.70;;
19609;SDS011;9952;47.122;-1.638;2022-12-18T06:03:23;28.33;;;12.23;;
19609;SDS011;9952;47.122;-1.638;2022-12-18T06:08:04;28.07;;;12.20;;
19609;SDS011;9952;47.122;-1.638;2022-12-18T06:12:45;28.47;;;13.40;;
19609;SDS011;9952;47.122;-1.638;2022-12-18T06:17:29;28.97;;;13.50;;
19609;SDS011;9952;47.122;-1.638;2022-12-18T06:22:10;27.37;;;13.33;;
19609;SDS011;9952;47.122;-1.638;2022-12-18T06:26:51;30.87;;;13.90;;
19609;SDS011;9952;47.122;-1.638;2022-12-18T06:31:32;31.67;;;13.30;;
19609;SDS011;9952;47.122;-1.638;2022-12-18T06:36:13;29.83;;;13.60;;
19609;SDS011;9952;47.122;-1.638;2022-12-18T06:40:54;28.53;;;13.90;;
19609;SDS011;9952;47.122;-1.638;2022-12-18T06:45:35;31.27;;;14.73;;
19609;SDS011;9952;47.122;-1.638;2022-12-18T06:50:16;33.93;;;14.57;;
19609;SDS011;9952;47.122;-1.638;2022-12-18T06:54:57;31.40;;;14.43;;
19609;SDS011;9952;47.122;-1.638;2022-12-18T06:59:37;34.03;;;14.80;;
19609;SDS011;9952;47.122;-1.638;2022-12-18T07:04:18;31.97;;;14.27;;
19609;SDS011;9952;47.122;-1.638;2022-12-18T07:08:59;31.00;;;15.43;;
19609;SDS011;9952;47.122;-1.638;2022-12-18T07:13:40;32.07;;;13.50;;
19609;SDS011;9952;47.122;-1.638;2022-12-18T07:18:21;31.30;;;14.47;;
19609;SDS011;9952;47.122;-1.638;2022-12-18T07:23:02;29.07;;;13.80;;
19609;SDS011;9952;47.122;-1.638;2022-12-18T07:27:45;26.47;;;13.43;;
19609;SDS011;9952;47.122;-1.638;2022-12-18T07:32:25;29.57;;;14.17;;
19609;SDS011;9952;47.122;-1.638;2022-12-18T07:37:06;27.83;;;13.60;;
19609;SDS011;9952;47.122;-1.638;2022-12-18T07:41:47;26.87;;;12.47;;
19609;SDS011;9952;47.122;-1.638;2022-12-18T07:46:48;26.33;;;12.93;;
19609;SDS011;9952;47.122;-1.638;2022-12-18T07:51:28;24.73;;;13.63;;
19609;SDS011;9952;47.122;-1.638;2022-12-18T07:56:10;23.57;;;12.90;;
19609;SDS011;9952;47.122;-1.638;2022-12-18T08:00:52;27.67;;;13.03;;
19609;SDS011;9952;47.122;-1.638;2022-12-18T08:05:33;23.97;;;13.03;;
19609;SDS011;9952;47.122;-1.638;2022-12-18T08:10:13;27.97;;;13.17;;
19609;SDS011;9952;47.122;-1.638;2022-12-18T08:14:54;25.43;;;12.83;;
19609;SDS011;9952;47.122;-1.638;2022-12-18T08:19:35;25.93;;;12.53;;
19609;SDS011;9952;47.122;-1.638;2022-12-18T08:24:16;25.97;;;13.77;;
19609;SDS011;9952;47.122;-1.638;2022-12-18T08:28:57;22.87;;;12.20;;
19609;SDS011;9952;47.122;-1.638;2022-12-18T08:33:40;24.80;;;13.70;;
19609;SDS011;9952;47.122;-1.638;2022-12-18T08:38:22;25.80;;;13.33;;
19609;SDS011;9952;47.122;-1.638;2022-12-18T08:43:03;28.37;;;14.03;;
19609;SDS011;9952;47.122;-1.638;2022-12-18T08:48:02;24.60;;;13.00;;
19609;SDS011;9952;47.122;-1.638;2022-12-18T08:52:43;26.43;;;14.00;;
19609;SDS011;9952;47.122;-1.638;2022-12-18T08:57:24;31.77;;;13.37;;
19609;SDS011;9952;47.122;-1.638;2022-12-18T09:02:04;25.33;;;13.70;;
19609;SDS011;9952;47.122;-1.638;2022-12-18T09:06:45;26.50;;;13.93;;
19609;SDS011;9952;47.122;-1.638;2022-12-18T09:11:27;27.77;;;13.97;;
19609;SDS011;9952;47.122;-1.638;2022-12-18T09:16:08;26.13;;;13.90;;
19609;SDS011;9952;47.122;-1.638;2022-12-18T09:20:49;30.27;;;14.73;;
19609;SDS011;9952;47.122;-1.638;2022-12-18T09:25:32;29.40;;;13.70;;
19609;SDS011;9952;47.122;-1.638;2022-12-18T09:30:15;25.10;;;14.13;;
19609;SDS011;9952;47.122;-1.638;2022-12-18T09:34:56;27.67;;;13.60;;
19609;SDS011;9952;47.122;-1.638;2022-12-18T09:39:37;26.33;;;13.83;;
19609;SDS011;9952;47.122;-1.638;2022-12-18T09:49:12;26.27;;;13.47;;
19609;SDS011;9952;47.122;-1.638;2022-12-18T09:54:01;25.60;;;13.67;;
19609;SDS011;9952;47.122;-1.638;2022-12-18T09:58:47;25.60;;;13.07;;
19609;SDS011;9952;47.122;-1.638;2022-12-18T10:03:34;23.77;;;13.80;;
19609;SDS011;9952;47.122;-1.638;2022-12-18T10:08:24;26.07;;;13.13;;
19609;SDS011;9952;47.122;-1.638;2022-12-18T10:13:35;25.60;;;13.63;;
19609;SDS011;9952;47.122;-1.638;2022-12-18T10:18:30;26.93;;;13.70;;
19609;SDS011;9952;47.122;-1.638;2022-12-18T10:28:31;26.90;;;13.87;;
19609;SDS011;9952;47.122;-1.638;2022-12-18T10:33:20;26.40;;;12.90;;
19609;SDS011;9952;47.122;-1.638;2022-12-18T10:42:43;25.67;;;13.90;;
19609;SDS011;9952;47.122;-1.638;2022-12-18T10:47:24;25.10;;;13.43;;
19609;SDS011;9952;47.122;-1.638;2022-12-18T10:52:18;25.73;;;14.10;;
19609;SDS011;9952;47.122;-1.638;2022-12-18T10:57:14;27.23;;;14.40;;
19609;SDS011;9952;47.122;-1.638;2022-12-18T11:01:57;25.70;;;14.23;;
19609;SDS011;9952;47.122;-1.638;2022-12-18T11:06:52;30.93;;;14.40;;
19609;SDS011;9952;47.122;-1.638;2022-12-18T11:11:35;23.60;;;12.30;;
19609;SDS011;9952;47.122;-1.638;2022-12-18T11:16:18;23.37;;;12.93;;
19609;SDS011;9952;47.122;-1.638;2022-12-18T11:21:09;23.67;;;13.80;;
19609;SDS011;9952;47.122;-1.638;2022-12-18T11:25:54;22.60;;;13.07;;
19609;SDS011;9952;47.122;-1.638;2022-12-18T11:30:41;21.80;;;12.93;;
19609;SDS011;9952;47.122;-1.638;2022-12-18T11:40:14;27.00;;;14.03;;
19609;SDS011;9952;47.122;-1.638;2022-12-18T11:49:52;31.47;;;15.13;;
19609;SDS011;9952;47.122;-1.638;2022-12-18T11:54:35;30.70;;;16.20;;
19609;SDS011;9952;47.122;-1.638;2022-12-18T11:59:31;29.30;;;15.40;;
19609;SDS011;9952;47.122;-1.638;2022-12-18T12:04:38;32.60;;;15.30;;
19609;SDS011;9952;47.122;-1.638;2022-12-18T12:09:24;32.00;;;15.53;;
19609;SDS011;9952;47.122;-1.638;2022-12-18T12:14:27;26.60;;;14.77;;
19609;SDS011;9952;47.122;-1.638;2022-12-18T12:24:27;25.57;;;14.97;;
19609;SDS011;9952;47.122;-1.638;2022-12-18T12:34:26;22.47;;;13.10;;
19609;SDS011;9952;47.122;-1.638;2022-12-18T12:39:37;22.37;;;12.83;;
19609;SDS011;9952;47.122;-1.638;2022-12-18T12:44:25;21.53;;;12.17;;
19609;SDS011;9952;47.122;-1.638;2022-12-18T12:49:36;20.50;;;12.00;;
19609;SDS011;9952;47.122;-1.638;2022-12-18T12:54:19;24.67;;;13.63;;
19609;SDS011;9952;47.122;-1.638;2022-12-18T12:59:19;19.33;;;11.47;;
19609;SDS011;9952;47.122;-1.638;2022-12-18T13:09:13;19.50;;;10.97;;
19609;SDS011;9952;47.122;-1.638;2022-12-18T13:13:55;19.13;;;11.33;;
19609;SDS011;9952;47.122;-1.638;2022-12-18T13:18:36;21.20;;;12.20;;
19609;SDS011;9952;47.122;-1.638;2022-12-18T13:23:27;18.10;;;11.83;;
19609;SDS011;9952;47.122;-1.638;2022-12-18T13:28:12;17.43;;;11.17;;
19609;SDS011;9952;47.122;-1.638;2022-12-18T13:37:54;16.97;;;11.00;;
19609;SDS011;9952;47.122;-1.638;2022-12-18T13:42:37;16.57;;;11.13;;
19609;SDS011;9952;47.122;-1.638;2022-12-18T13:47:37;17.70;;;10.33;;
19609;SDS011;9952;47.122;-1.638;2022-12-18T13:52:19;17.87;;;10.80;;
19609;SDS011;9952;47.122;-1.638;2022-12-18T13:57:05;17.03;;;10.27;;
19609;SDS011;9952;47.122;-1.638;2022-12-18T14:02:15;15.00;;;10.13;;
19609;SDS011;9952;47.122;-1.638;2022-12-18T14:07:12;18.40;;;9.70;;
19609;SDS011;9952;47.122;-1.638;2022-12-18T14:11:55;15.93;;;9.10;;
19609;SDS011;9952;47.122;-1.638;2022-12-18T14:16:57;14.10;;;8.73;;
19609;SDS011;9952;47.122;-1.638;2022-12-18T14:21:39;12.77;;;8.47;;
19609;SDS011;9952;47.122;-1.638;2022-12-18T14:26:25;11.37;;;7.90;;
19609;SDS011;9952;47.122;-1.638;2022-12-18T14:31:16;14.23;;;8.37;;
19609;SDS011;9952;47.122;-1.638;2022-12-18T14:36:03;13.03;;;7.93;;
19609;SDS011;9952;47.122;-1.638;2022-12-18T14:40:45;11.87;;;7.80;;
19609;SDS011;9952;47.122;-1.638;2022-12-18T14:45:33;12.07;;;8.20;;
19609;SDS011;9952;47.122;-1.638;2022-12-18T14:50:17;13.47;;;7.93;;
19609;SDS011;9952;47.122;-1.638;2022-12-18T14:54:58;13.47;;;8.23;;
19609;SDS011;9952;47.122;-1.638;2022-12-18T14:59:39;14.73;;;7.60;;
19609;SDS011;9952;47.122;-1.638;2022-12-18T15:04:38;12.97;;;7.53;;
19609;SDS011;9952;47.122;-1.638;2022-12-18T15:09:22;11.77;;;7.30;;
19609;SDS011;9952;47.122;-1.638;2022-12-18T15:14:29;10.97;;;7.47;;
19609;SDS011;9952;47.122;-1.638;2022-12-18T15:19:15;12.60;;;7.97;;
19609;SDS011;9952;47.122;-1.638;2022-12-18T15:23:58;10.07;;;7.07;;
19609;SDS011;9952;47.122;-1.638;2022-12-18T15:28:43;12.87;;;7.97;;
19609;SDS011;9952;47.122;-1.638;2022-12-18T15:33:39;9.47;;;6.23;;
19609;SDS011;9952;47.122;-1.638;2022-12-18T15:38:40;11.90;;;6.60;;
19609;SDS011;9952;47.122;-1.638;2022-12-18T15:43:23;10.77;;;6.70;;
19609;SDS011;9952;47.122;-1.638;2022-12-18T15:48:21;9.70;;;6.40;;
19609;SDS011;9952;47.122;-1.638;2022-12-18T15:53:07;9.83;;;6.83;;
19609;SDS011;9952;47.122;-1.638;2022-12-18T15:57:50;9.40;;;6.33;;
19609;SDS011;9952;47.122;-1.638;2022-12-18T16:02:33;8.87;;;6.10;;
19609;SDS011;9952;47.122;-1.638;2022-12-18T16:07:15;10.03;;;6.60;;
19609;SDS011;9952;47.122;-1.638;2022-12-18T16:11:55;11.13;;;6.27;;
19609;SDS011;9952;47.122;-1.638;2022-12-18T16:16:36;7.20;;;5.23;;
19609;SDS011;9952;47.122;-1.638;2022-12-18T16:21:21;11.13;;;5.23;;
19609;SDS011;9952;47.122;-1.638;2022-12-18T16:26:02;8.57;;;5.03;;
19609;SDS011;9952;47.122;-1.638;2022-12-18T16:30:44;8.23;;;4.77;;
19609;SDS011;9952;47.122;-1.638;2022-12-18T16:35:25;8.40;;;5.20;;
19609;SDS011;9952;47.122;-1.638;2022-12-18T16:40:07;8.13;;;5.00;;
19609;SDS011;9952;47.122;-1.638;2022-12-18T16:44:50;6.97;;;4.97;;
19609;SDS011;9952;47.122;-1.638;2022-12-18T16:49:31;7.30;;;4.17;;
19609;SDS011;9952;47.122;-1.638;2022-12-18T16:54:12;7.57;;;5.57;;
19609;SDS011;9952;47.122;-1.638;2022-12-18T16:58:54;7.33;;;4.83;;
19609;SDS011;9952;47.122;-1.638;2022-12-18T17:03:36;8.43;;;4.77;;
19609;SDS011;9952;47.122;-1.638;2022-12-18T17:08:17;7.70;;;5.20;;
19609;SDS011;9952;47.122;-1.638;2022-12-18T17:12:58;7.30;;;5.10;;
19609;SDS011;9952;47.122;-1.638;2022-12-18T17:17:39;8.03;;;5.67;;
19609;SDS011;9952;47.122;-1.638;2022-12-18T17:22:21;7.10;;;4.83;;
19609;SDS011;9952;47.122;-1.638;2022-12-18T17:27:02;7.60;;;5.03;;
19609;SDS011;9952;47.122;-1.638;2022-12-18T17:31:44;8.20;;;4.90;;
19609;SDS011;9952;47.122;-1.638;2022-12-18T17:36:25;7.37;;;4.50;;
19609;SDS011;9952;47.122;-1.638;2022-12-18T17:41:08;10.23;;;5.53;;
19609;SDS011;9952;47.122;-1.638;2022-12-18T17:45:50;9.07;;;4.63;;
19609;SDS011;9952;47.122;-1.638;2022-12-18T17:50:32;8.40;;;4.87;;
19609;SDS011;9952;47.122;-1.638;2022-12-18T17:55:13;5.87;;;4.23;;
19609;SDS011;9952;47.122;-1.638;2022-12-18T17:59:54;6.63;;;4.30;;
19609;SDS011;9952;47.122;-1.638;2022-12-18T18:04:36;12.00;;;4.90;;
19609;SDS011;9952;47.122;-1.638;2022-12-18T18:09:17;8.50;;;4.57;;
19609;SDS011;9952;47.122;-1.638;2022-12-18T18:13:58;7.43;;;5.10;;
19609;SDS011;9952;47.122;-1.638;2022-12-18T18:18:42;6.63;;;4.20;;
19609;SDS011;9952;47.122;-1.638;2022-12-18T18:23:22;7.23;;;4.00;;
19609;SDS011;9952;47.122;-1.638;2022-12-18T18:28:03;8.07;;;4.40;;
19609;SDS011;9952;47.122;-1.638;2022-12-18T18:32:44;8.00;;;4.53;;
19609;SDS011;9952;47.122;-1.638;2022-12-18T18:37:25;7.17;;;4.10;;
19609;SDS011;9952;47.122;-1.638;2022-12-18T18:42:05;6.63;;;4.33;;
19609;SDS011;9952;47.122;-1.638;2022-12-18T18:46:46;7.67;;;4.43;;
19609;SDS011;9952;47.122;-1.638;2022-12-18T18:51:28;7.87;;;4.10;;
19609;SDS011;9952;47.122;-1.638;2022-12-18T18:56:10;7.63;;;4.57;;
19609;SDS011;9952;47.122;-1.638;2022-12-18T19:00:55;5.97;;;4.20;;
19609;SDS011;9952;47.122;-1.638;2022-12-18T19:05:37;7.83;;;4.53;;
19609;SDS011;9952;47.122;-1.638;2022-12-18T19:10:18;9.37;;;4.53;;
19609;SDS011;9952;47.122;-1.638;2022-12-18T19:14:59;7.17;;;4.17;;
19609;SDS011;9952;47.122;-1.638;2022-12-18T19:19:39;7.80;;;4.53;;
19609;SDS011;9952;47.122;-1.638;2022-12-18T19:24:20;7.07;;;4.50;;
19609;SDS011;9952;47.122;-1.638;2022-12-18T19:29:02;7.90;;;4.07;;
19609;SDS011;9952;47.122;-1.638;2022-12-18T19:33:45;5.63;;;4.20;;
19609;SDS011;9952;47.122;-1.638;2022-12-18T19:38:27;6.33;;;4.00;;
19609;SDS011;9952;47.122;-1.638;2022-12-18T19:43:08;6.97;;;3.60;;
19609;SDS011;9952;47.122;-1.638;2022-12-18T19:47:49;5.27;;;3.90;;
19609;SDS011;9952;47.122;-1.638;2022-12-18T19:52:30;5.67;;;3.33;;
19609;SDS011;9952;47.122;-1.638;2022-12-18T19:57:11;6.83;;;3.77;;
19609;SDS011;9952;47.122;-1.638;2022-12-18T20:01:51;8.03;;;3.57;;
19609;SDS011;9952;47.122;-1.638;2022-12-18T20:06:36;5.60;;;3.47;;
19609;SDS011;9952;47.122;-1.638;2022-12-18T20:11:27;7.73;;;4.07;;
19609;SDS011;9952;47.122;-1.638;2022-12-18T20:16:08;5.37;;;3.57;;
19609;SDS011;9952;47.122;-1.638;2022-12-18T20:20:49;6.80;;;3.80;;
19609;SDS011;9952;47.122;-1.638;2022-12-18T20:25:31;6.40;;;3.80;;
19609;SDS011;9952;47.122;-1.638;2022-12-18T20:30:12;7.73;;;3.70;;
19609;SDS011;9952;47.122;-1.638;2022-12-18T20:34:53;11.13;;;3.73;;
19609;SDS011;9952;47.122;-1.638;2022-12-18T20:39:34;5.87;;;4.00;;
19609;SDS011;9952;47.122;-1.638;2022-12-18T20:44:15;5.97;;;3.40;;
19609;SDS011;9952;47.122;-1.638;2022-12-18T20:48:56;6.90;;;3.67;;
19609;SDS011;9952;47.122;-1.638;2022-12-18T20:53:38;5.97;;;3.60;;
19609;SDS011;9952;47.122;-1.638;2022-12-18T20:58:19;6.67;;;3.90;;
19609;SDS011;9952;47.122;-1.638;2022-12-18T21:03:00;7.83;;;4.27;;
19609;SDS011;9952;47.122;-1.638;2022-12-18T21:07:41;9.20;;;4.30;;
19609;SDS011;9952;47.122;-1.638;2022-12-18T21:12:22;8.63;;;4.17;;
19609;SDS011;9952;47.122;-1.638;2022-12-18T21:17:18;8.97;;;3.93;;
19609;SDS011;9952;47.122;-1.638;2022-12-18T21:21:58;8.00;;;3.90;;
19609;SDS011;9952;47.122;-1.638;2022-12-18T21:26:39;6.00;;;3.83;;
19609;SDS011;9952;47.122;-1.638;2022-12-18T21:31:21;7.43;;;3.63;;
19609;SDS011;9952;47.122;-1.638;2022-12-18T21:36:05;8.00;;;4.17;;
19609;SDS011;9952;47.122;-1.638;2022-12-18T21:40:46;9.57;;;3.87;;
19609;SDS011;9952;47.122;-1.638;2022-12-18T21:45:27;6.90;;;3.90;;
19609;SDS011;9952;47.122;-1.638;2022-12-18T21:50:08;10.43;;;4.10;;
19609;SDS011;9952;47.122;-1.638;2022-12-18T21:54:49;6.73;;;3.90;;
19609;SDS011;9952;47.122;-1.638;2022-12-18T21:59:33;7.60;;;3.50;;
19609;SDS011;9952;47.122;-1.638;2022-12-18T22:04:15;12.13;;;4.37;;
19609;SDS011;9952;47.122;-1.638;2022-12-18T22:08:57;8.70;;;3.90;;
19609;SDS011;9952;47.122;-1.638;2022-12-18T22:13:38;5.57;;;3.27;;
19609;SDS011;9952;47.122;-1.638;2022-12-18T22:18:18;6.33;;;3.73;;
19609;SDS011;9952;47.122;-1.638;2022-12-18T22:23:00;8.73;;;3.87;;
19609;SDS011;9952;47.122;-1.638;2022-12-18T22:27:41;6.13;;;3.43;;
19609;SDS011;9952;47.122;-1.638;2022-12-18T22:32:21;7.40;;;3.53;;
19609;SDS011;9952;47.122;-1.638;2022-12-18T22:37:02;6.83;;;3.67;;
19609;SDS011;9952;47.122;-1.638;2022-12-18T22:41:44;7.60;;;3.73;;
19609;SDS011;9952;47.122;-1.638;2022-12-18T22:46:25;8.03;;;3.83;;
19609;SDS011;9952;47.122;-1.638;2022-12-18T22:51:06;5.50;;;3.50;;
19609;SDS011;9952;47.122;-1.638;2022-12-18T22:55:48;8.93;;;3.70;;
19609;SDS011;9952;47.122;-1.638;2022-12-18T23:00:29;6.73;;;3.60;;
19609;SDS011;9952;47.122;-1.638;2022-12-18T23:05:09;6.67;;;3.40;;
19609;SDS011;9952;47.122;-1.638;2022-12-18T23:09:50;6.83;;;3.40;;
19609;SDS011;9952;47.122;-1.638;2022-12-18T23:14:31;5.57;;;3.30;;
19609;SDS011;9952;47.122;-1.638;2022-12-18T23:19:12;7.17;;;3.40;;
19609;SDS011;9952;47.122;-1.638;2022-12-18T23:23:53;6.93;;;3.33;;
19609;SDS011;9952;47.122;-1.638;2022-12-18T23:28:34;7.33;;;3.47;;
19609;SDS011;9952;47.122;-1.638;2022-12-18T23:33:15;8.00;;;3.37;;
19609;SDS011;9952;47.122;-1.638;2022-12-18T23:37:56;7.03;;;3.37;;
19609;SDS011;9952;47.122;-1.638;2022-12-18T23:42:37;5.80;;;3.60;;
19609;SDS011;9952;47.122;-1.638;2022-12-18T23:47:17;8.60;;;3.47;;
19609;SDS011;9952;47.122;-1.638;2022-12-18T23:51:58;10.37;;;3.47;;
19609;SDS011;9952;47.122;-1.638;2022-12-18T23:56:39;7.00;;;4.30;;
